createdAt,value
2018-12-21T00:00:54.522Z,0.80
2018-12-21T00:06:00.063Z,0.70
2018-12-21T00:11:05.573Z,0.90
2018-12-21T00:16:11.012Z,1.37
2018-12-21T00:21:21.800Z,0.60
2018-12-21T00:26:23.802Z,1.10
2018-12-21T00:31:35.227Z,1.17
2018-12-21T00:36:45.937Z,0.70
2018-12-21T00:41:50.668Z,0.60
2018-12-21T00:46:58.940Z,0.50
2018-12-21T00:52:04.796Z,0.43
2018-12-21T00:57:10.124Z,0.67
2018-12-21T01:02:16.468Z,0.30
2018-12-21T01:07:22.139Z,0.70
2018-12-21T01:12:29.153Z,0.40
2018-12-21T01:17:34.588Z,0.40
2018-12-21T01:22:39.860Z,0.30
2018-12-21T01:27:45.125Z,0.30
2018-12-21T01:32:50.441Z,0.40
2018-12-21T01:37:55.822Z,0.40
2018-12-21T01:43:01.104Z,0.40
2018-12-21T01:48:07.350Z,0.40
2018-12-21T01:53:12.962Z,0.50
2018-12-21T01:58:18.282Z,0.40
2018-12-21T02:03:23.747Z,0.50
2018-12-21T02:08:29.268Z,0.63
2018-12-21T02:13:34.570Z,0.40
2018-12-21T02:18:40.038Z,0.50
2018-12-21T02:23:45.352Z,0.43
2018-12-21T02:28:50.790Z,0.60
2018-12-21T02:33:56.053Z,0.77
2018-12-21T02:39:01.508Z,0.50
2018-12-21T02:44:07.455Z,0.57
2018-12-21T02:49:12.951Z,1.10
2018-12-21T02:54:18.351Z,1.00
2018-12-21T02:59:23.839Z,1.10
2018-12-21T03:04:29.273Z,0.83
2018-12-21T03:09:34.773Z,1.30
2018-12-21T03:14:40.334Z,1.10
2018-12-21T03:19:45.746Z,1.10
2018-12-21T03:24:51.451Z,1.00
2018-12-21T03:29:57.020Z,1.20
2018-12-21T03:35:02.295Z,1.40
2018-12-21T03:40:07.751Z,1.30
2018-12-21T03:45:13.079Z,1.13
2018-12-21T03:50:18.654Z,1.47
2018-12-21T03:55:24.010Z,1.10
2018-12-21T04:00:29.504Z,1.40
2018-12-21T04:05:34.887Z,1.20
2018-12-21T04:10:40.324Z,1.30
2018-12-21T04:15:46.020Z,1.17
2018-12-21T04:20:51.454Z,1.43
2018-12-21T04:25:56.731Z,1.17
2018-12-21T04:31:02.127Z,1.00
2018-12-21T04:36:07.486Z,1.53
2018-12-21T04:41:12.964Z,1.27
2018-12-21T04:46:18.219Z,1.50
2018-12-21T04:51:23.615Z,0.90
2018-12-21T04:56:29.111Z,0.67
2018-12-21T05:01:35.378Z,1.00
2018-12-21T05:06:40.871Z,0.80
2018-12-21T05:11:46.504Z,0.50
2018-12-21T05:16:52.257Z,0.40
2018-12-21T05:21:58.218Z,0.70
2018-12-21T05:27:03.979Z,0.93
2018-12-21T05:32:10.054Z,1.27
2018-12-21T05:37:15.448Z,1.60
2018-12-21T05:42:20.742Z,1.47
2018-12-21T05:47:26.456Z,1.20
2018-12-21T05:52:32.893Z,1.53
2018-12-21T05:57:38.477Z,1.47
2018-12-21T06:02:44.071Z,1.07
2018-12-21T06:07:49.613Z,0.97
2018-12-21T06:12:57.095Z,0.90
2018-12-21T06:18:02.494Z,1.40
2018-12-21T06:23:09.538Z,1.37
2018-12-21T06:28:15.478Z,1.20
2018-12-21T06:33:20.833Z,1.20
2018-12-21T06:38:26.385Z,0.80
2018-12-21T06:43:32.091Z,0.63
2018-12-21T06:48:38.104Z,0.70
2018-12-21T06:53:43.601Z,0.63
2018-12-21T06:58:49.093Z,0.50
2018-12-21T07:03:54.572Z,0.60
2018-12-21T07:09:00.231Z,0.90
2018-12-21T07:14:05.538Z,1.10
2018-12-21T07:19:11.262Z,1.67
2018-12-21T07:24:17.175Z,0.77
2018-12-21T07:29:22.640Z,0.40
2018-12-21T07:34:27.959Z,0.70
2018-12-21T07:39:34.145Z,0.97
2018-12-21T07:44:40.549Z,0.50
2018-12-21T07:49:45.703Z,0.40
2018-12-21T07:54:51.002Z,1.03
2018-12-21T07:59:56.501Z,0.83
2018-12-21T08:05:02.440Z,0.80
2018-12-21T08:10:12.061Z,0.50
2018-12-21T08:15:17.889Z,0.50
2018-12-21T08:20:25.018Z,0.53
2018-12-21T08:25:30.331Z,0.20
2018-12-21T08:30:36.787Z,1.53
2018-12-21T08:35:42.149Z,0.30
2018-12-21T08:40:47.695Z,0.60
2018-12-21T08:45:53.145Z,0.60
2018-12-21T08:50:58.769Z,0.40
2018-12-21T08:56:04.682Z,0.40
2018-12-21T09:01:10.530Z,0.30
2018-12-21T09:06:18.588Z,0.30
2018-12-21T09:11:23.557Z,0.50
2018-12-21T09:16:29.013Z,0.50
2018-12-21T09:21:34.765Z,0.40
2018-12-21T09:26:40.205Z,0.40
2018-12-21T09:31:45.735Z,0.30
2018-12-21T09:36:51.170Z,0.40
2018-12-21T09:41:57.396Z,0.30
2018-12-21T09:47:02.835Z,0.40
2018-12-21T09:52:08.602Z,1.10
2018-12-21T09:57:14.532Z,0.40
2018-12-21T10:02:21.089Z,0.30
2018-12-21T10:07:27.743Z,0.30
2018-12-21T10:12:35.182Z,0.40
2018-12-21T10:17:40.796Z,0.37
2018-12-21T10:22:46.161Z,0.33
2018-12-21T10:27:51.625Z,0.30
2018-12-21T10:32:57.145Z,0.30
2018-12-21T10:38:02.574Z,0.30
2018-12-21T10:43:08.161Z,0.30
2018-12-21T10:48:13.622Z,0.27
2018-12-21T10:53:19.052Z,0.40
2018-12-21T10:58:24.424Z,0.30
2018-12-21T11:03:30.127Z,0.80
2018-12-21T11:08:35.844Z,0.30
2018-12-21T11:13:41.355Z,0.20
2018-12-21T11:18:47.153Z,0.20
2018-12-21T11:23:52.794Z,0.30
2018-12-21T11:28:58.121Z,0.20
2018-12-21T11:34:03.520Z,0.30
2018-12-21T11:39:08.849Z,0.30
2018-12-21T11:44:15.326Z,0.20
2018-12-21T11:49:20.730Z,0.60
2018-12-21T11:54:26.287Z,0.80
2018-12-21T11:59:31.889Z,0.37
2018-12-21T12:04:37.444Z,0.20
2018-12-21T12:09:43.015Z,0.20
2018-12-21T12:14:48.725Z,0.20
2018-12-21T12:19:54.640Z,0.20
2018-12-21T12:25:00.831Z,0.20
2018-12-21T12:30:08.626Z,0.20
2018-12-21T12:35:14.887Z,0.20
2018-12-21T12:40:20.417Z,0.20
2018-12-21T12:45:26.203Z,0.20
2018-12-21T12:50:31.591Z,0.30
2018-12-21T12:55:37.218Z,0.20
2018-12-21T13:00:43.611Z,0.20
2018-12-21T13:05:49.459Z,0.23
2018-12-21T13:10:56.420Z,0.27
2018-12-21T13:16:02.103Z,0.17
2018-12-21T13:21:07.691Z,0.20
2018-12-21T13:26:13.068Z,0.20
2018-12-21T13:31:18.314Z,0.10
2018-12-21T13:36:23.857Z,0.20
2018-12-21T13:41:29.424Z,0.20
2018-12-21T13:46:35.293Z,0.20
2018-12-21T13:51:40.857Z,0.20
2018-12-21T13:56:46.625Z,0.20
2018-12-21T14:01:54.441Z,0.20
2018-12-21T14:07:00.186Z,0.30
2018-12-21T14:12:06.464Z,0.20
2018-12-21T14:17:12.113Z,0.20
2018-12-21T14:22:17.998Z,0.20
2018-12-21T14:27:23.438Z,0.90
2018-12-21T14:32:28.814Z,0.20
2018-12-21T14:37:34.455Z,0.20
2018-12-21T14:42:41.028Z,0.30
2018-12-21T14:47:46.634Z,0.20
2018-12-21T14:52:51.885Z,0.37
2018-12-21T14:57:57.297Z,0.30
2018-12-21T15:03:03.100Z,0.30
2018-12-21T15:08:08.767Z,0.30
2018-12-21T15:13:15.940Z,0.20
2018-12-21T15:18:21.786Z,0.30
2018-12-21T15:23:27.584Z,0.20
2018-12-21T15:28:35.062Z,0.20
2018-12-21T15:33:40.690Z,0.20
2018-12-21T15:38:46.314Z,0.30
2018-12-21T15:43:51.856Z,0.40
2018-12-21T15:48:57.164Z,0.47
2018-12-21T15:54:02.798Z,0.30
2018-12-21T15:59:08.394Z,0.20
2018-12-21T16:04:14.100Z,0.20
2018-12-21T16:09:20.193Z,0.20
2018-12-21T16:14:34.039Z,0.20
2018-12-21T16:19:33.820Z,0.23
2018-12-21T16:24:39.729Z,0.20
2018-12-21T16:29:46.006Z,0.40
2018-12-21T16:34:51.973Z,0.30
2018-12-21T16:39:57.513Z,0.60
2018-12-21T16:45:02.928Z,0.40
2018-12-21T16:50:11.776Z,0.90
2018-12-21T16:55:17.460Z,0.90
2018-12-21T17:00:23.228Z,0.30
2018-12-21T17:05:29.031Z,0.30
2018-12-21T17:10:34.722Z,0.20
2018-12-21T17:15:40.187Z,0.40
2018-12-21T17:20:46.468Z,0.40
2018-12-21T17:25:51.933Z,0.50
2018-12-21T17:30:57.574Z,0.40
2018-12-21T17:36:03.284Z,0.43
2018-12-21T17:41:09.165Z,0.60
2018-12-21T17:46:16.135Z,0.60
2018-12-21T17:51:21.943Z,0.47
2018-12-21T17:56:29.982Z,1.30
2018-12-21T18:01:37.875Z,0.70
2018-12-21T18:06:43.731Z,0.60
2018-12-21T18:11:56.999Z,0.50
2018-12-21T18:16:57.053Z,0.50
2018-12-21T18:22:10.668Z,0.50
2018-12-21T18:27:16.951Z,0.30
2018-12-21T18:32:33.359Z,2.00
2018-12-21T18:37:45.359Z,2.83
2018-12-21T18:42:50.873Z,1.57
2018-12-21T18:47:57.502Z,0.43
2018-12-21T18:53:03.052Z,0.57
2018-12-21T18:58:08.633Z,0.67
2018-12-21T19:03:14.333Z,0.40
2018-12-21T19:08:20.080Z,0.80
2018-12-21T19:13:26.601Z,0.50
2018-12-21T19:18:32.454Z,0.67
2018-12-21T19:23:38.103Z,0.70
2018-12-21T19:28:43.917Z,1.17
2018-12-21T19:33:49.526Z,1.00
2018-12-21T19:38:55.795Z,0.90
2018-12-21T19:44:03.054Z,0.80
2018-12-21T19:49:09.019Z,0.90
2018-12-21T19:54:18.741Z,1.17
2018-12-21T19:59:24.292Z,1.20
2018-12-21T20:04:30.069Z,1.17
2018-12-21T20:09:36.091Z,1.07
2018-12-21T20:14:41.416Z,1.03
2018-12-21T20:19:48.235Z,1.07
2018-12-21T20:24:54.129Z,1.30
2018-12-21T20:30:00.911Z,1.17
2018-12-21T20:35:07.667Z,0.90
2018-12-21T20:40:13.969Z,0.83
2018-12-21T20:45:20.034Z,0.73
2018-12-21T20:50:25.969Z,1.80
2018-12-21T20:55:31.637Z,1.53
2018-12-21T21:00:37.047Z,0.77
2018-12-21T21:05:44.059Z,0.97
2018-12-21T21:10:49.951Z,1.23
2018-12-21T21:15:55.650Z,1.10
2018-12-21T21:21:02.002Z,1.30
2018-12-21T21:26:07.529Z,1.27
2018-12-21T21:31:13.311Z,1.10
2018-12-21T21:36:18.555Z,1.00
2018-12-21T21:41:24.389Z,1.50
2018-12-21T21:46:30.071Z,0.90
2018-12-21T21:51:37.597Z,0.60
2018-12-21T21:56:43.544Z,0.80
2018-12-21T22:01:49.390Z,1.30
2018-12-21T22:06:55.683Z,0.70
2018-12-21T22:12:01.324Z,1.40
2018-12-21T22:17:06.826Z,1.20
2018-12-21T22:22:13.968Z,1.40
2018-12-21T22:27:19.465Z,1.93
2018-12-21T22:32:24.894Z,1.07
2018-12-21T22:37:30.374Z,1.50
2018-12-21T22:42:35.769Z,1.23
2018-12-21T22:47:41.357Z,1.70
2018-12-21T22:52:46.927Z,1.47
2018-12-21T22:57:56.505Z,1.43
2018-12-21T23:03:00.093Z,1.47
2018-12-21T23:08:05.517Z,1.00
2018-12-21T23:13:11.135Z,0.80
2018-12-21T23:18:16.705Z,1.00
2018-12-21T23:23:22.267Z,1.00
2018-12-21T23:28:27.748Z,1.50
2018-12-21T23:33:33.177Z,1.07
2018-12-21T23:38:38.375Z,1.40
2018-12-21T23:43:43.960Z,0.87
2018-12-21T23:48:49.909Z,1.10
2018-12-21T23:53:55.497Z,1.90
2018-12-21T23:59:00.972Z,1.50
